sensor_id;sensor_type;location;lat;lon;timestamp;temperature;humidity
74488;DHT22;63019;51.080;13.642;2023-05-07T00:00:00;9.50;99.90
74488;DHT22;63019;51.080;13.642;2023-05-07T00:01:03;9.50;99.90
74488;DHT22;63019;51.080;13.642;2023-05-07T00:02:10;9.50;99.90
74488;DHT22;63019;51.080;13.642;2023-05-07T00:03:17;9.50;99.90
74488;DHT22;63019;51.080;13.642;2023-05-07T00:04:23;9.50;99.90
74488;DHT22;63019;51.080;13.642;2023-05-07T00:05:25;9.50;99.90
74488;DHT22;63019;51.080;13.642;2023-05-07T00:06:29;9.50;99.90
74488;DHT22;63019;51.080;13.642;2023-05-07T00:07:32;9.40;99.90
74488;DHT22;63019;51.080;13.642;2023-05-07T00:08:36;9.50;99.90
74488;DHT22;63019;51.080;13.642;2023-05-07T00:09:39;9.40;99.90
74488;DHT22;63019;51.080;13.642;2023-05-07T00:10:43;9.50;99.90
74488;DHT22;63019;51.080;13.642;2023-05-07T00:11:46;9.50;99.90
74488;DHT22;63019;51.080;13.642;2023-05-07T00:12:49;9.40;99.90
74488;DHT22;63019;51.080;13.642;2023-05-07T00:13:51;9.40;99.90
74488;DHT22;63019;51.080;13.642;2023-05-07T00:14:54;9.50;99.90
74488;DHT22;63019;51.080;13.642;2023-05-07T00:15:56;9.50;99.90
74488;DHT22;63019;51.080;13.642;2023-05-07T00:16:58;9.50;99.90
74488;DHT22;63019;51.080;13.642;2023-05-07T00:18:02;9.50;99.90
74488;DHT22;63019;51.080;13.642;2023-05-07T00:19:04;9.50;99.90
74488;DHT22;63019;51.080;13.642;2023-05-07T00:20:07;9.50;99.90
74488;DHT22;63019;51.080;13.642;2023-05-07T00:21:11;9.50;99.90
74488;DHT22;63019;51.080;13.642;2023-05-07T00:22:14;9.50;99.90
74488;DHT22;63019;51.080;13.642;2023-05-07T00:23:17;9.50;99.90
74488;DHT22;63019;51.080;13.642;2023-05-07T00:24:20;9.50;99.90
74488;DHT22;63019;51.080;13.642;2023-05-07T00:25:24;9.50;99.90
74488;DHT22;63019;51.080;13.642;2023-05-07T00:26:27;9.50;99.90
74488;DHT22;63019;51.080;13.642;2023-05-07T00:27:29;9.50;99.90
74488;DHT22;63019;51.080;13.642;2023-05-07T00:28:34;9.50;99.90
74488;DHT22;63019;51.080;13.642;2023-05-07T00:29:36;9.50;99.90
74488;DHT22;63019;51.080;13.642;2023-05-07T00:30:38;9.50;99.90
74488;DHT22;63019;51.080;13.642;2023-05-07T00:31:41;9.50;99.90
74488;DHT22;63019;51.080;13.642;2023-05-07T00:32:43;9.50;99.90
74488;DHT22;63019;51.080;13.642;2023-05-07T00:33:49;9.50;99.90
74488;DHT22;63019;51.080;13.642;2023-05-07T00:34:53;9.50;99.90
74488;DHT22;63019;51.080;13.642;2023-05-07T00:35:56;9.50;99.90
74488;DHT22;63019;51.080;13.642;2023-05-07T00:36:59;9.60;99.90
74488;DHT22;63019;51.080;13.642;2023-05-07T00:38:02;9.60;99.90
74488;DHT22;63019;51.080;13.642;2023-05-07T00:39:04;9.60;99.90
74488;DHT22;63019;51.080;13.642;2023-05-07T00:40:07;9.60;99.90
74488;DHT22;63019;51.080;13.642;2023-05-07T00:41:11;9.60;99.90
74488;DHT22;63019;51.080;13.642;2023-05-07T00:42:13;9.70;99.90
74488;DHT22;63019;51.080;13.642;2023-05-07T00:43:18;9.70;99.90
74488;DHT22;63019;51.080;13.642;2023-05-07T00:44:20;9.70;99.90
74488;DHT22;63019;51.080;13.642;2023-05-07T00:45:26;9.70;99.90
74488;DHT22;63019;51.080;13.642;2023-05-07T00:46:30;9.70;99.90
74488;DHT22;63019;51.080;13.642;2023-05-07T00:47:33;9.70;99.90
74488;DHT22;63019;51.080;13.642;2023-05-07T00:48:36;9.70;99.90
74488;DHT22;63019;51.080;13.642;2023-05-07T00:49:43;9.70;99.90
74488;DHT22;63019;51.080;13.642;2023-05-07T00:50:46;9.70;99.90
74488;DHT22;63019;51.080;13.642;2023-05-07T00:51:50;9.70;99.90
74488;DHT22;63019;51.080;13.642;2023-05-07T00:52:53;9.80;99.90
74488;DHT22;63019;51.080;13.642;2023-05-07T00:53:55;9.80;99.90
74488;DHT22;63019;51.080;13.642;2023-05-07T00:55:04;9.80;99.90
74488;DHT22;63019;51.080;13.642;2023-05-07T00:56:08;9.80;99.90
74488;DHT22;63019;51.080;13.642;2023-05-07T00:57:10;9.80;99.90
74488;DHT22;63019;51.080;13.642;2023-05-07T00:58:13;9.80;99.90
74488;DHT22;63019;51.080;13.642;2023-05-07T00:59:17;9.80;99.90
74488;DHT22;63019;51.080;13.642;2023-05-07T01:00:20;9.80;99.90
74488;DHT22;63019;51.080;13.642;2023-05-07T01:01:23;9.80;99.90
74488;DHT22;63019;51.080;13.642;2023-05-07T01:02:27;9.80;99.90
74488;DHT22;63019;51.080;13.642;2023-05-07T01:03:30;9.80;99.90
74488;DHT22;63019;51.080;13.642;2023-05-07T01:04:35;9.80;99.90
74488;DHT22;63019;51.080;13.642;2023-05-07T01:05:38;9.80;99.90
74488;DHT22;63019;51.080;13.642;2023-05-07T01:06:44;9.80;99.90
74488;DHT22;63019;51.080;13.642;2023-05-07T01:07:48;9.80;99.90
74488;DHT22;63019;51.080;13.642;2023-05-07T01:08:51;9.70;99.90
74488;DHT22;63019;51.080;13.642;2023-05-07T01:09:55;9.70;99.90
74488;DHT22;63019;51.080;13.642;2023-05-07T01:10:57;9.70;99.90
74488;DHT22;63019;51.080;13.642;2023-05-07T01:12:02;9.70;99.90
74488;DHT22;63019;51.080;13.642;2023-05-07T01:13:05;9.70;99.90
74488;DHT22;63019;51.080;13.642;2023-05-07T01:14:09;9.80;99.90
74488;DHT22;63019;51.080;13.642;2023-05-07T01:15:12;9.80;99.90
74488;DHT22;63019;51.080;13.642;2023-05-07T01:16:15;9.80;99.90
74488;DHT22;63019;51.080;13.642;2023-05-07T01:17:17;9.70;99.90
74488;DHT22;63019;51.080;13.642;2023-05-07T01:18:22;9.70;99.90
74488;DHT22;63019;51.080;13.642;2023-05-07T01:19:25;9.70;99.90
74488;DHT22;63019;51.080;13.642;2023-05-07T01:20:28;9.70;99.90
74488;DHT22;63019;51.080;13.642;2023-05-07T01:21:33;9.70;99.90
74488;DHT22;63019;51.080;13.642;2023-05-07T01:22:40;9.70;99.90
74488;DHT22;63019;51.080;13.642;2023-05-07T01:23:42;9.60;99.90
74488;DHT22;63019;51.080;13.642;2023-05-07T01:24:47;9.60;99.90
74488;DHT22;63019;51.080;13.642;2023-05-07T01:25:53;9.60;99.90
74488;DHT22;63019;51.080;13.642;2023-05-07T01:26:56;9.50;99.90
74488;DHT22;63019;51.080;13.642;2023-05-07T01:27:59;9.50;99.90
74488;DHT22;63019;51.080;13.642;2023-05-07T01:29:04;9.50;99.90
74488;DHT22;63019;51.080;13.642;2023-05-07T01:30:09;9.50;99.90
74488;DHT22;63019;51.080;13.642;2023-05-07T01:31:13;9.50;99.90
74488;DHT22;63019;51.080;13.642;2023-05-07T01:32:21;9.50;99.90
74488;DHT22;63019;51.080;13.642;2023-05-07T01:33:29;9.50;99.90
74488;DHT22;63019;51.080;13.642;2023-05-07T01:34:34;9.50;99.90
74488;DHT22;63019;51.080;13.642;2023-05-07T01:35:41;9.60;99.90
74488;DHT22;63019;51.080;13.642;2023-05-07T01:36:46;9.60;99.90
74488;DHT22;63019;51.080;13.642;2023-05-07T01:37:50;9.60;99.90
74488;DHT22;63019;51.080;13.642;2023-05-07T01:38:52;9.70;99.90
74488;DHT22;63019;51.080;13.642;2023-05-07T01:39:55;9.70;99.90
74488;DHT22;63019;51.080;13.642;2023-05-07T01:40:58;9.70;99.90
74488;DHT22;63019;51.080;13.642;2023-05-07T01:42:01;9.70;99.90
74488;DHT22;63019;51.080;13.642;2023-05-07T01:43:03;9.60;99.90
74488;DHT22;63019;51.080;13.642;2023-05-07T01:44:07;9.60;99.90
74488;DHT22;63019;51.080;13.642;2023-05-07T01:45:11;9.60;99.90
74488;DHT22;63019;51.080;13.642;2023-05-07T01:46:15;9.60;99.90
74488;DHT22;63019;51.080;13.642;2023-05-07T01:47:17;9.60;99.90
74488;DHT22;63019;51.080;13.642;2023-05-07T01:48:21;9.60;99.90
74488;DHT22;63019;51.080;13.642;2023-05-07T01:49:23;9.60;99.90
74488;DHT22;63019;51.080;13.642;2023-05-07T01:50:26;9.60;99.90
74488;DHT22;63019;51.080;13.642;2023-05-07T01:51:29;9.60;99.90
74488;DHT22;63019;51.080;13.642;2023-05-07T01:52:32;9.60;99.90
74488;DHT22;63019;51.080;13.642;2023-05-07T01:53:38;9.50;99.90
74488;DHT22;63019;51.080;13.642;2023-05-07T01:54:42;9.50;99.90
74488;DHT22;63019;51.080;13.642;2023-05-07T01:55:46;9.50;99.90
74488;DHT22;63019;51.080;13.642;2023-05-07T01:56:49;9.50;99.90
74488;DHT22;63019;51.080;13.642;2023-05-07T01:57:51;9.50;99.90
74488;DHT22;63019;51.080;13.642;2023-05-07T01:58:56;9.50;99.90
74488;DHT22;63019;51.080;13.642;2023-05-07T02:00:00;9.50;99.90
74488;DHT22;63019;51.080;13.642;2023-05-07T02:01:08;9.50;99.90
74488;DHT22;63019;51.080;13.642;2023-05-07T02:02:11;9.50;99.90
74488;DHT22;63019;51.080;13.642;2023-05-07T02:03:13;9.50;99.90
74488;DHT22;63019;51.080;13.642;2023-05-07T02:04:18;9.40;99.90
74488;DHT22;63019;51.080;13.642;2023-05-07T02:05:21;9.40;99.90
74488;DHT22;63019;51.080;13.642;2023-05-07T02:06:24;9.40;99.90
74488;DHT22;63019;51.080;13.642;2023-05-07T02:07:28;9.40;99.90
74488;DHT22;63019;51.080;13.642;2023-05-07T02:08:31;9.40;99.90
74488;DHT22;63019;51.080;13.642;2023-05-07T02:09:33;9.40;99.90
74488;DHT22;63019;51.080;13.642;2023-05-07T02:10:36;9.40;99.90
74488;DHT22;63019;51.080;13.642;2023-05-07T02:11:39;9.40;99.90
74488;DHT22;63019;51.080;13.642;2023-05-07T02:12:43;9.40;99.90
74488;DHT22;63019;51.080;13.642;2023-05-07T02:13:46;9.40;99.90
74488;DHT22;63019;51.080;13.642;2023-05-07T02:14:49;9.40;99.90
74488;DHT22;63019;51.080;13.642;2023-05-07T02:15:52;9.40;99.90
74488;DHT22;63019;51.080;13.642;2023-05-07T02:16:55;9.30;99.90
74488;DHT22;63019;51.080;13.642;2023-05-07T02:18:06;9.30;99.90
74488;DHT22;63019;51.080;13.642;2023-05-07T02:19:08;9.30;99.90
74488;DHT22;63019;51.080;13.642;2023-05-07T02:20:11;9.30;99.90
74488;DHT22;63019;51.080;13.642;2023-05-07T02:21:15;9.30;99.90
74488;DHT22;63019;51.080;13.642;2023-05-07T02:22:17;9.30;99.90
74488;DHT22;63019;51.080;13.642;2023-05-07T02:23:21;9.30;99.90
74488;DHT22;63019;51.080;13.642;2023-05-07T02:24:24;9.30;99.90
74488;DHT22;63019;51.080;13.642;2023-05-07T02:25:27;9.30;99.90
74488;DHT22;63019;51.080;13.642;2023-05-07T02:26:29;9.30;99.90
74488;DHT22;63019;51.080;13.642;2023-05-07T02:27:31;9.30;99.90
74488;DHT22;63019;51.080;13.642;2023-05-07T02:28:34;9.30;99.90
74488;DHT22;63019;51.080;13.642;2023-05-07T02:29:38;9.30;99.90
74488;DHT22;63019;51.080;13.642;2023-05-07T02:30:40;9.30;99.90
74488;DHT22;63019;51.080;13.642;2023-05-07T02:31:43;9.30;99.90
74488;DHT22;63019;51.080;13.642;2023-05-07T02:32:45;9.40;99.90
74488;DHT22;63019;51.080;13.642;2023-05-07T02:33:50;9.40;99.90
74488;DHT22;63019;51.080;13.642;2023-05-07T02:34:54;9.40;99.90
74488;DHT22;63019;51.080;13.642;2023-05-07T02:36:04;9.40;99.90
74488;DHT22;63019;51.080;13.642;2023-05-07T02:37:07;9.40;99.90
74488;DHT22;63019;51.080;13.642;2023-05-07T02:38:10;9.40;99.90
74488;DHT22;63019;51.080;13.642;2023-05-07T02:39:13;9.40;99.90
74488;DHT22;63019;51.080;13.642;2023-05-07T02:40:16;9.40;99.90
74488;DHT22;63019;51.080;13.642;2023-05-07T02:41:18;9.50;99.90
74488;DHT22;63019;51.080;13.642;2023-05-07T02:42:21;9.50;99.90
74488;DHT22;63019;51.080;13.642;2023-05-07T02:43:24;9.50;99.90
74488;DHT22;63019;51.080;13.642;2023-05-07T02:44:28;9.50;99.90
74488;DHT22;63019;51.080;13.642;2023-05-07T02:45:33;9.50;99.90
74488;DHT22;63019;51.080;13.642;2023-05-07T02:46:36;9.50;99.90
74488;DHT22;63019;51.080;13.642;2023-05-07T02:47:38;9.50;99.90
74488;DHT22;63019;51.080;13.642;2023-05-07T02:48:40;9.50;99.90
74488;DHT22;63019;51.080;13.642;2023-05-07T02:49:43;9.50;99.90
74488;DHT22;63019;51.080;13.642;2023-05-07T02:50:45;9.50;99.90
74488;DHT22;63019;51.080;13.642;2023-05-07T02:51:48;9.50;99.90
74488;DHT22;63019;51.080;13.642;2023-05-07T02:52:50;9.50;99.90
74488;DHT22;63019;51.080;13.642;2023-05-07T02:53:53;9.50;99.90
74488;DHT22;63019;51.080;13.642;2023-05-07T02:54:55;9.40;99.90
74488;DHT22;63019;51.080;13.642;2023-05-07T02:55:59;9.40;99.90
74488;DHT22;63019;51.080;13.642;2023-05-07T02:57:04;9.40;99.90
74488;DHT22;63019;51.080;13.642;2023-05-07T02:58:07;9.40;99.90
74488;DHT22;63019;51.080;13.642;2023-05-07T02:59:10;9.40;99.90
74488;DHT22;63019;51.080;13.642;2023-05-07T03:00:15;9.40;99.90
74488;DHT22;63019;51.080;13.642;2023-05-07T03:01:18;9.40;99.90
74488;DHT22;63019;51.080;13.642;2023-05-07T03:02:21;9.40;99.90
74488;DHT22;63019;51.080;13.642;2023-05-07T03:03:23;9.40;99.90
74488;DHT22;63019;51.080;13.642;2023-05-07T03:04:26;9.30;99.90
74488;DHT22;63019;51.080;13.642;2023-05-07T03:05:30;9.30;99.90
74488;DHT22;63019;51.080;13.642;2023-05-07T03:06:33;9.30;99.90
74488;DHT22;63019;51.080;13.642;2023-05-07T03:07:37;9.30;99.90
74488;DHT22;63019;51.080;13.642;2023-05-07T03:08:41;9.30;99.90
74488;DHT22;63019;51.080;13.642;2023-05-07T03:09:43;9.30;99.90
74488;DHT22;63019;51.080;13.642;2023-05-07T03:10:46;9.30;99.90
74488;DHT22;63019;51.080;13.642;2023-05-07T03:11:48;9.40;99.90
74488;DHT22;63019;51.080;13.642;2023-05-07T03:12:51;9.40;99.90
74488;DHT22;63019;51.080;13.642;2023-05-07T03:13:53;9.40;99.90
74488;DHT22;63019;51.080;13.642;2023-05-07T03:14:55;9.40;99.90
74488;DHT22;63019;51.080;13.642;2023-05-07T03:16:00;9.40;99.90
74488;DHT22;63019;51.080;13.642;2023-05-07T03:17:02;9.40;99.90
74488;DHT22;63019;51.080;13.642;2023-05-07T03:18:04;9.40;99.90
74488;DHT22;63019;51.080;13.642;2023-05-07T03:19:06;9.40;99.90
74488;DHT22;63019;51.080;13.642;2023-05-07T03:20:08;9.40;99.90
74488;DHT22;63019;51.080;13.642;2023-05-07T03:21:11;9.40;99.90
74488;DHT22;63019;51.080;13.642;2023-05-07T03:22:14;9.40;99.90
74488;DHT22;63019;51.080;13.642;2023-05-07T03:23:16;9.40;99.90
74488;DHT22;63019;51.080;13.642;2023-05-07T03:24:17;9.30;99.90
74488;DHT22;63019;51.080;13.642;2023-05-07T03:25:19;9.30;99.90
74488;DHT22;63019;51.080;13.642;2023-05-07T03:26:21;9.30;99.90
74488;DHT22;63019;51.080;13.642;2023-05-07T03:27:23;9.30;99.90
74488;DHT22;63019;51.080;13.642;2023-05-07T03:28:24;9.20;99.90
74488;DHT22;63019;51.080;13.642;2023-05-07T03:29:26;9.20;99.90
74488;DHT22;63019;51.080;13.642;2023-05-07T03:30:28;9.20;99.90
74488;DHT22;63019;51.080;13.642;2023-05-07T03:31:30;9.20;99.90
74488;DHT22;63019;51.080;13.642;2023-05-07T03:32:32;9.20;99.90
74488;DHT22;63019;51.080;13.642;2023-05-07T03:33:34;9.20;99.90
74488;DHT22;63019;51.080;13.642;2023-05-07T03:34:36;9.20;99.90
74488;DHT22;63019;51.080;13.642;2023-05-07T03:35:38;9.20;99.90
74488;DHT22;63019;51.080;13.642;2023-05-07T03:36:40;9.20;99.90
74488;DHT22;63019;51.080;13.642;2023-05-07T03:37:42;9.20;99.90
74488;DHT22;63019;51.080;13.642;2023-05-07T03:38:44;9.30;99.90
74488;DHT22;63019;51.080;13.642;2023-05-07T03:39:46;9.30;99.90
74488;DHT22;63019;51.080;13.642;2023-05-07T03:40:47;9.30;99.90
74488;DHT22;63019;51.080;13.642;2023-05-07T03:41:49;9.30;99.90
74488;DHT22;63019;51.080;13.642;2023-05-07T03:42:51;9.30;99.90
74488;DHT22;63019;51.080;13.642;2023-05-07T03:43:53;9.30;99.90
74488;DHT22;63019;51.080;13.642;2023-05-07T03:44:55;9.30;99.90
74488;DHT22;63019;51.080;13.642;2023-05-07T03:45:57;9.30;99.90
74488;DHT22;63019;51.080;13.642;2023-05-07T03:46:58;9.40;99.90
74488;DHT22;63019;51.080;13.642;2023-05-07T03:48:01;9.40;99.90
74488;DHT22;63019;51.080;13.642;2023-05-07T03:49:03;9.40;99.90
74488;DHT22;63019;51.080;13.642;2023-05-07T03:50:06;9.40;99.90
74488;DHT22;63019;51.080;13.642;2023-05-07T03:51:08;9.40;99.90
74488;DHT22;63019;51.080;13.642;2023-05-07T03:52:09;9.40;99.90
74488;DHT22;63019;51.080;13.642;2023-05-07T03:53:11;9.40;99.90
74488;DHT22;63019;51.080;13.642;2023-05-07T03:54:13;9.40;99.90
74488;DHT22;63019;51.080;13.642;2023-05-07T03:55:15;9.30;99.90
74488;DHT22;63019;51.080;13.642;2023-05-07T03:56:16;9.30;99.90
74488;DHT22;63019;51.080;13.642;2023-05-07T03:57:20;9.40;99.90
74488;DHT22;63019;51.080;13.642;2023-05-07T03:58:22;9.40;99.90
74488;DHT22;63019;51.080;13.642;2023-05-07T03:59:24;9.40;99.90
74488;DHT22;63019;51.080;13.642;2023-05-07T04:00:26;9.30;99.90
74488;DHT22;63019;51.080;13.642;2023-05-07T04:01:27;9.30;99.90
74488;DHT22;63019;51.080;13.642;2023-05-07T04:02:29;9.30;99.90
74488;DHT22;63019;51.080;13.642;2023-05-07T04:03:32;9.30;99.90
74488;DHT22;63019;51.080;13.642;2023-05-07T04:04:34;9.30;99.90
74488;DHT22;63019;51.080;13.642;2023-05-07T04:05:36;9.30;99.90
74488;DHT22;63019;51.080;13.642;2023-05-07T04:06:38;9.30;99.90
74488;DHT22;63019;51.080;13.642;2023-05-07T04:07:40;9.30;99.90
74488;DHT22;63019;51.080;13.642;2023-05-07T04:08:42;9.20;99.90
74488;DHT22;63019;51.080;13.642;2023-05-07T04:09:43;9.20;99.90
74488;DHT22;63019;51.080;13.642;2023-05-07T04:10:45;9.20;99.90
74488;DHT22;63019;51.080;13.642;2023-05-07T04:11:47;9.20;99.90
74488;DHT22;63019;51.080;13.642;2023-05-07T04:12:49;9.20;99.90
74488;DHT22;63019;51.080;13.642;2023-05-07T04:13:51;9.20;99.90
74488;DHT22;63019;51.080;13.642;2023-05-07T04:14:52;9.20;99.90
74488;DHT22;63019;51.080;13.642;2023-05-07T04:15:55;9.20;99.90
74488;DHT22;63019;51.080;13.642;2023-05-07T04:16:58;9.20;99.90
74488;DHT22;63019;51.080;13.642;2023-05-07T04:18:00;9.20;99.90
74488;DHT22;63019;51.080;13.642;2023-05-07T04:19:02;9.20;99.90
74488;DHT22;63019;51.080;13.642;2023-05-07T04:20:04;9.10;99.90
74488;DHT22;63019;51.080;13.642;2023-05-07T04:21:16;9.10;99.90
74488;DHT22;63019;51.080;13.642;2023-05-07T04:22:18;9.10;99.90
74488;DHT22;63019;51.080;13.642;2023-05-07T04:23:20;9.10;99.90
74488;DHT22;63019;51.080;13.642;2023-05-07T04:24:22;9.10;99.90
74488;DHT22;63019;51.080;13.642;2023-05-07T04:25:24;9.10;99.90
74488;DHT22;63019;51.080;13.642;2023-05-07T04:26:28;9.10;99.90
74488;DHT22;63019;51.080;13.642;2023-05-07T04:27:31;9.10;99.90
74488;DHT22;63019;51.080;13.642;2023-05-07T04:28:34;9.10;99.90
74488;DHT22;63019;51.080;13.642;2023-05-07T04:29:36;9.10;99.90
74488;DHT22;63019;51.080;13.642;2023-05-07T04:30:39;9.10;99.90
74488;DHT22;63019;51.080;13.642;2023-05-07T04:31:41;9.10;99.90
74488;DHT22;63019;51.080;13.642;2023-05-07T04:32:45;9.10;99.90
74488;DHT22;63019;51.080;13.642;2023-05-07T04:33:47;9.10;99.90
74488;DHT22;63019;51.080;13.642;2023-05-07T04:34:49;9.10;99.90
74488;DHT22;63019;51.080;13.642;2023-05-07T04:35:51;9.10;99.90
74488;DHT22;63019;51.080;13.642;2023-05-07T04:36:53;9.10;99.90
74488;DHT22;63019;51.080;13.642;2023-05-07T04:37:54;9.00;99.90
74488;DHT22;63019;51.080;13.642;2023-05-07T04:38:56;9.00;99.90
74488;DHT22;63019;51.080;13.642;2023-05-07T04:39:58;9.00;99.90
74488;DHT22;63019;51.080;13.642;2023-05-07T04:41:04;9.00;99.90
74488;DHT22;63019;51.080;13.642;2023-05-07T04:42:06;9.00;99.90
74488;DHT22;63019;51.080;13.642;2023-05-07T04:43:10;9.00;99.90
74488;DHT22;63019;51.080;13.642;2023-05-07T04:44:12;9.00;99.90
74488;DHT22;63019;51.080;13.642;2023-05-07T04:45:13;9.00;99.90
74488;DHT22;63019;51.080;13.642;2023-05-07T04:46:16;9.00;99.90
74488;DHT22;63019;51.080;13.642;2023-05-07T04:47:18;8.90;99.90
74488;DHT22;63019;51.080;13.642;2023-05-07T04:48:19;8.90;99.90
74488;DHT22;63019;51.080;13.642;2023-05-07T04:49:22;8.90;99.90
74488;DHT22;63019;51.080;13.642;2023-05-07T04:50:23;8.90;99.90
74488;DHT22;63019;51.080;13.642;2023-05-07T04:51:26;8.90;99.90
74488;DHT22;63019;51.080;13.642;2023-05-07T04:52:27;8.90;99.90
74488;DHT22;63019;51.080;13.642;2023-05-07T04:53:29;8.90;99.90
74488;DHT22;63019;51.080;13.642;2023-05-07T04:54:31;8.90;99.90
74488;DHT22;63019;51.080;13.642;2023-05-07T04:55:33;8.90;99.90
74488;DHT22;63019;51.080;13.642;2023-05-07T04:56:34;8.90;99.90
74488;DHT22;63019;51.080;13.642;2023-05-07T04:57:36;9.00;99.90
74488;DHT22;63019;51.080;13.642;2023-05-07T04:58:40;9.00;99.90
74488;DHT22;63019;51.080;13.642;2023-05-07T04:59:43;9.10;99.90
74488;DHT22;63019;51.080;13.642;2023-05-07T05:00:44;9.10;99.90
74488;DHT22;63019;51.080;13.642;2023-05-07T05:01:46;9.10;99.90
74488;DHT22;63019;51.080;13.642;2023-05-07T05:02:48;9.10;99.90
74488;DHT22;63019;51.080;13.642;2023-05-07T05:03:50;9.10;99.90
74488;DHT22;63019;51.080;13.642;2023-05-07T05:04:52;9.10;99.90
74488;DHT22;63019;51.080;13.642;2023-05-07T05:05:54;9.10;99.90
74488;DHT22;63019;51.080;13.642;2023-05-07T05:06:55;9.10;99.90
74488;DHT22;63019;51.080;13.642;2023-05-07T05:07:57;9.20;99.90
74488;DHT22;63019;51.080;13.642;2023-05-07T05:08:59;9.20;99.90
74488;DHT22;63019;51.080;13.642;2023-05-07T05:10:02;9.20;99.90
74488;DHT22;63019;51.080;13.642;2023-05-07T05:11:04;9.20;99.90
74488;DHT22;63019;51.080;13.642;2023-05-07T05:12:06;9.20;99.90
74488;DHT22;63019;51.080;13.642;2023-05-07T05:13:09;9.20;99.90
74488;DHT22;63019;51.080;13.642;2023-05-07T05:14:11;9.20;99.90
74488;DHT22;63019;51.080;13.642;2023-05-07T05:15:13;9.30;99.90
74488;DHT22;63019;51.080;13.642;2023-05-07T05:16:15;9.20;99.90
74488;DHT22;63019;51.080;13.642;2023-05-07T05:17:17;9.30;99.90
74488;DHT22;63019;51.080;13.642;2023-05-07T05:18:20;9.30;99.90
74488;DHT22;63019;51.080;13.642;2023-05-07T05:19:22;9.30;99.90
74488;DHT22;63019;51.080;13.642;2023-05-07T05:20:24;9.30;99.90
74488;DHT22;63019;51.080;13.642;2023-05-07T05:21:25;9.30;99.90
74488;DHT22;63019;51.080;13.642;2023-05-07T05:22:27;9.30;99.90
74488;DHT22;63019;51.080;13.642;2023-05-07T05:23:32;9.30;99.90
74488;DHT22;63019;51.080;13.642;2023-05-07T05:24:34;9.30;99.90
74488;DHT22;63019;51.080;13.642;2023-05-07T05:25:36;9.30;99.90
74488;DHT22;63019;51.080;13.642;2023-05-07T05:26:38;9.30;99.90
74488;DHT22;63019;51.080;13.642;2023-05-07T05:27:40;9.30;99.90
74488;DHT22;63019;51.080;13.642;2023-05-07T05:28:42;9.30;99.90
74488;DHT22;63019;51.080;13.642;2023-05-07T05:29:44;9.30;99.90
74488;DHT22;63019;51.080;13.642;2023-05-07T05:30:45;9.30;99.90
74488;DHT22;63019;51.080;13.642;2023-05-07T05:31:47;9.30;99.90
74488;DHT22;63019;51.080;13.642;2023-05-07T05:32:49;9.30;99.90
74488;DHT22;63019;51.080;13.642;2023-05-07T05:33:51;9.30;99.90
74488;DHT22;63019;51.080;13.642;2023-05-07T05:34:53;9.30;99.90
74488;DHT22;63019;51.080;13.642;2023-05-07T05:35:55;9.30;99.90
74488;DHT22;63019;51.080;13.642;2023-05-07T05:36:57;9.20;99.90
74488;DHT22;63019;51.080;13.642;2023-05-07T05:38:00;9.20;99.90
74488;DHT22;63019;51.080;13.642;2023-05-07T05:39:01;9.20;99.90
74488;DHT22;63019;51.080;13.642;2023-05-07T05:40:03;9.20;99.90
74488;DHT22;63019;51.080;13.642;2023-05-07T05:41:05;9.20;99.90
74488;DHT22;63019;51.080;13.642;2023-05-07T05:42:07;9.10;99.90
74488;DHT22;63019;51.080;13.642;2023-05-07T05:43:09;9.10;99.90
74488;DHT22;63019;51.080;13.642;2023-05-07T05:44:10;9.10;99.90
74488;DHT22;63019;51.080;13.642;2023-05-07T05:45:12;9.10;99.90
74488;DHT22;63019;51.080;13.642;2023-05-07T05:46:14;9.10;99.90
74488;DHT22;63019;51.080;13.642;2023-05-07T05:47:16;9.10;99.90
74488;DHT22;63019;51.080;13.642;2023-05-07T05:48:18;9.10;99.90
74488;DHT22;63019;51.080;13.642;2023-05-07T05:49:20;9.10;99.90
74488;DHT22;63019;51.080;13.642;2023-05-07T05:50:22;9.10;99.90
74488;DHT22;63019;51.080;13.642;2023-05-07T05:51:24;9.10;99.90
74488;DHT22;63019;51.080;13.642;2023-05-07T05:52:26;9.10;99.90
74488;DHT22;63019;51.080;13.642;2023-05-07T05:53:28;9.10;99.90
74488;DHT22;63019;51.080;13.642;2023-05-07T05:54:30;9.10;99.90
74488;DHT22;63019;51.080;13.642;2023-05-07T05:55:31;9.10;99.90
74488;DHT22;63019;51.080;13.642;2023-05-07T05:56:34;9.10;99.90
74488;DHT22;63019;51.080;13.642;2023-05-07T05:57:35;9.10;99.90
74488;DHT22;63019;51.080;13.642;2023-05-07T05:58:37;9.10;99.90
74488;DHT22;63019;51.080;13.642;2023-05-07T05:59:39;9.10;99.90
74488;DHT22;63019;51.080;13.642;2023-05-07T06:00:41;9.10;99.90
74488;DHT22;63019;51.080;13.642;2023-05-07T06:01:43;9.00;99.90
74488;DHT22;63019;51.080;13.642;2023-05-07T06:02:45;9.00;99.90
74488;DHT22;63019;51.080;13.642;2023-05-07T06:03:47;9.00;99.90
74488;DHT22;63019;51.080;13.642;2023-05-07T06:04:49;9.00;99.90
74488;DHT22;63019;51.080;13.642;2023-05-07T06:05:50;9.00;99.90
74488;DHT22;63019;51.080;13.642;2023-05-07T06:06:52;9.00;99.90
74488;DHT22;63019;51.080;13.642;2023-05-07T06:07:54;9.00;99.90
74488;DHT22;63019;51.080;13.642;2023-05-07T06:08:56;9.00;99.90
74488;DHT22;63019;51.080;13.642;2023-05-07T06:09:57;9.00;99.90
74488;DHT22;63019;51.080;13.642;2023-05-07T06:11:01;9.00;99.90
74488;DHT22;63019;51.080;13.642;2023-05-07T06:12:03;9.00;99.90
74488;DHT22;63019;51.080;13.642;2023-05-07T06:13:05;9.00;99.90
74488;DHT22;63019;51.080;13.642;2023-05-07T06:14:07;9.00;99.90
74488;DHT22;63019;51.080;13.642;2023-05-07T06:15:09;9.00;99.90
74488;DHT22;63019;51.080;13.642;2023-05-07T06:16:11;9.00;99.90
74488;DHT22;63019;51.080;13.642;2023-05-07T06:17:13;9.00;99.90
74488;DHT22;63019;51.080;13.642;2023-05-07T06:18:15;9.00;99.90
74488;DHT22;63019;51.080;13.642;2023-05-07T06:19:17;9.00;99.90
74488;DHT22;63019;51.080;13.642;2023-05-07T06:20:23;9.10;99.90
74488;DHT22;63019;51.080;13.642;2023-05-07T06:21:25;9.10;99.90
74488;DHT22;63019;51.080;13.642;2023-05-07T06:22:26;9.20;99.90
74488;DHT22;63019;51.080;13.642;2023-05-07T06:23:28;9.20;99.90
74488;DHT22;63019;51.080;13.642;2023-05-07T06:24:30;9.20;99.90
74488;DHT22;63019;51.080;13.642;2023-05-07T06:25:32;9.20;99.90
74488;DHT22;63019;51.080;13.642;2023-05-07T06:26:34;9.30;99.90
74488;DHT22;63019;51.080;13.642;2023-05-07T06:27:35;9.30;99.90
74488;DHT22;63019;51.080;13.642;2023-05-07T06:28:37;9.30;99.90
74488;DHT22;63019;51.080;13.642;2023-05-07T06:29:39;9.30;99.90
74488;DHT22;63019;51.080;13.642;2023-05-07T06:30:41;9.30;99.90
74488;DHT22;63019;51.080;13.642;2023-05-07T06:31:43;9.30;99.90
74488;DHT22;63019;51.080;13.642;2023-05-07T06:32:45;9.30;99.90
74488;DHT22;63019;51.080;13.642;2023-05-07T06:33:47;9.30;99.90
74488;DHT22;63019;51.080;13.642;2023-05-07T06:34:49;9.30;99.90
74488;DHT22;63019;51.080;13.642;2023-05-07T06:35:51;9.30;99.90